This is the latest recevied weather packets stored in our database for station/object VK4HIT-13. If no packets are shown the sender has not sent any weather packets the latest 10 day(s).
| Time | Temp. | Humidity | Pressure | Rain* | Wind** | Luminosity | Snow |
|---|---|---|---|---|---|---|---|
| 1777781075 | 24.44° C | 58% | 1018.5 hPa | 0 mm | - | - | - |
| 1777780775 | 24.44° C | 58% | 1018.6 hPa | 0 mm | - | - | - |
| 1777780475 | 25° C | 56% | 1018.5 hPa | 0 mm | - | - | - |
| 1777780175 | 25.56° C | 56% | 1018.6 hPa | 0 mm | - | - | - |
| 1777779875 | 25.56° C | 58% | 1018.6 hPa | 0 mm | - | - | - |
| 1777779575 | 25° C | 56% | 1018.6 hPa | 0 mm | - | - | - |
| 1777779275 | 25.56° C | 56% | 1018.7 hPa | 0 mm | - | - | - |
| 1777778975 | 26.11° C | 55% | 1018.8 hPa | 0 mm | - | - | - |
| 1777778675 | 25.56° C | 57% | 1018.7 hPa | 0 mm | - | - | - |
| 1777778375 | 25.56° C | 58% | 1018.9 hPa | 0 mm | - | - | - |
| 1777778075 | 25.56° C | 58% | 1019 hPa | 0 mm | - | - | - |
| 1777777775 | 25.56° C | 57% | 1019 hPa | 0 mm | - | - | - |
| 1777777475 | 25° C | 59% | 1019.1 hPa | 0 mm | - | - | - |
| 1777777175 | 25° C | 60% | 1019.2 hPa | 0 mm | - | - | - |
| 1777776875 | 25° C | 59% | 1019.2 hPa | 0 mm | - | - | - |
| 1777776575 | 25° C | 59% | 1019.2 hPa | 0 mm | - | - | - |
| 1777776275 | 25° C | 60% | 1019.2 hPa | 0 mm | - | - | - |
| 1777775975 | 25° C | 61% | 1019.3 hPa | 0 mm | - | - | - |
| 1777775675 | 25° C | 60% | 1019.4 hPa | 0 mm | - | - | - |
| 1777775375 | 24.44° C | 60% | 1019.5 hPa | 0 mm | - | - | - |
| 1777775075 | 23.89° C | 60% | 1019.7 hPa | 0 mm | - | - | - |
| 1777774475 | 23.89° C | 63% | 1019.9 hPa | 0 mm | - | - | - |
| 1777774175 | 23.33° C | 63% | 1020 hPa | 0 mm | - | - | - |
| 1777770575 | 22.78° C | 66% | 1021 hPa | 0 mm | - | - | - |
| 1777766675 | 22.22° C | 72% | 1021.6 hPa | 0 mm | - | - | - |
* Rain latest hour (hover to see other rain measurements)
** Current wind speed in m/s (hover to see current wind gust speed)